Slag Pile, Wisconsin
Current Conditions -  °F | °C
As of 5:15 PM on Friday 31 Oct 2014 (Local Time) from KRNH Reporting Station
Clear Clear  
Wind Chill: 32°   Ceiling: Unl
Heat Index: 36°   Visibility: 10mi
Dew Point: 16°   Wind: 5mph
Humidity: 44%   Direction: 10°N
Pressure: 30.49"   Gusts: NA
Location:  44.9511°N, 92.2794°W
Report Text: KRNH 312215Z AUTO 01004KT 10SM CLR 02/M09 A3049 RMK AO2 T00241087
Loading
Personal Weather Stations






























Interactive Weather Map
Tropical Storm Tracking
New forecast layout! Learn more

10-Day Weather Forecast

Advertisements
Track Severe Weather on mobile